sensor_id;sensor_type;location;lat;lon;timestamp;temperature;humidity
57857;DHT22;43683;48.650;9.290;2023-10-08T00:00:43;12.20;62.90
57857;DHT22;43683;48.650;9.290;2023-10-08T00:03:14;12.20;62.90
57857;DHT22;43683;48.650;9.290;2023-10-08T00:05:41;12.30;62.90
57857;DHT22;43683;48.650;9.290;2023-10-08T00:08:07;12.30;62.80
57857;DHT22;43683;48.650;9.290;2023-10-08T00:10:38;12.40;62.70
57857;DHT22;43683;48.650;9.290;2023-10-08T00:13:07;12.40;62.50
57857;DHT22;43683;48.650;9.290;2023-10-08T00:15:35;12.50;62.60
57857;DHT22;43683;48.650;9.290;2023-10-08T00:18:04;12.50;62.50
57857;DHT22;43683;48.650;9.290;2023-10-08T00:20:31;12.50;62.50
57857;DHT22;43683;48.650;9.290;2023-10-08T00:23:07;12.50;62.50
57857;DHT22;43683;48.650;9.290;2023-10-08T00:25:33;12.60;62.30
57857;DHT22;43683;48.650;9.290;2023-10-08T00:27:59;12.70;62.20
57857;DHT22;43683;48.650;9.290;2023-10-08T00:30:27;12.70;61.90
57857;DHT22;43683;48.650;9.290;2023-10-08T00:32:53;12.80;61.90
57857;DHT22;43683;48.650;9.290;2023-10-08T00:35:18;12.80;61.90
57857;DHT22;43683;48.650;9.290;2023-10-08T00:37:46;12.90;61.90
57857;DHT22;43683;48.650;9.290;2023-10-08T00:40:13;12.90;61.90
57857;DHT22;43683;48.650;9.290;2023-10-08T00:42:44;12.90;61.90
57857;DHT22;43683;48.650;9.290;2023-10-08T00:45:11;12.90;62.10
57857;DHT22;43683;48.650;9.290;2023-10-08T00:47:40;12.80;62.30
57857;DHT22;43683;48.650;9.290;2023-10-08T00:50:12;12.70;62.70
57857;DHT22;43683;48.650;9.290;2023-10-08T00:52:50;12.70;62.70
57857;DHT22;43683;48.650;9.290;2023-10-08T00:55:25;12.70;62.60
57857;DHT22;43683;48.650;9.290;2023-10-08T00:57:58;12.70;62.50
57857;DHT22;43683;48.650;9.290;2023-10-08T01:00:33;12.70;62.50
57857;DHT22;43683;48.650;9.290;2023-10-08T01:03:05;12.70;62.50
57857;DHT22;43683;48.650;9.290;2023-10-08T01:05:40;12.70;62.60
57857;DHT22;43683;48.650;9.290;2023-10-08T01:08:14;12.70;62.60
57857;DHT22;43683;48.650;9.290;2023-10-08T01:10:44;12.70;62.50
57857;DHT22;43683;48.650;9.290;2023-10-08T01:13:13;12.70;62.40
57857;DHT22;43683;48.650;9.290;2023-10-08T01:15:46;12.70;62.10
57857;DHT22;43683;48.650;9.290;2023-10-08T01:18:15;12.80;62.00
57857;DHT22;43683;48.650;9.290;2023-10-08T01:20:43;12.80;62.00
57857;DHT22;43683;48.650;9.290;2023-10-08T01:23:10;12.70;62.00
57857;DHT22;43683;48.650;9.290;2023-10-08T01:25:37;12.70;62.20
57857;DHT22;43683;48.650;9.290;2023-10-08T01:28:03;12.60;62.30
57857;DHT22;43683;48.650;9.290;2023-10-08T01:30:34;12.60;62.40
57857;DHT22;43683;48.650;9.290;2023-10-08T01:33:06;12.50;62.40
57857;DHT22;43683;48.650;9.290;2023-10-08T01:35:36;12.50;62.70
57857;DHT22;43683;48.650;9.290;2023-10-08T01:38:02;12.40;63.00
57857;DHT22;43683;48.650;9.290;2023-10-08T01:40:29;12.20;63.30
57857;DHT22;43683;48.650;9.290;2023-10-08T01:42:56;12.10;63.60
57857;DHT22;43683;48.650;9.290;2023-10-08T01:45:30;12.00;64.00
57857;DHT22;43683;48.650;9.290;2023-10-08T01:47:57;11.90;64.30
57857;DHT22;43683;48.650;9.290;2023-10-08T01:50:23;11.70;64.60
57857;DHT22;43683;48.650;9.290;2023-10-08T01:52:55;11.60;64.90
57857;DHT22;43683;48.650;9.290;2023-10-08T01:55:20;11.50;65.90
57857;DHT22;43683;48.650;9.290;2023-10-08T01:57:49;11.40;65.30
57857;DHT22;43683;48.650;9.290;2023-10-08T02:00:15;11.40;65.40
57857;DHT22;43683;48.650;9.290;2023-10-08T02:02:51;11.40;65.30
57857;DHT22;43683;48.650;9.290;2023-10-08T02:05:17;11.40;65.30
57857;DHT22;43683;48.650;9.290;2023-10-08T02:07:45;11.40;65.50
57857;DHT22;43683;48.650;9.290;2023-10-08T02:10:11;11.30;65.60
57857;DHT22;43683;48.650;9.290;2023-10-08T02:12:40;11.20;65.70
57857;DHT22;43683;48.650;9.290;2023-10-08T02:15:07;11.10;66.00
57857;DHT22;43683;48.650;9.290;2023-10-08T02:17:33;11.10;66.30
57857;DHT22;43683;48.650;9.290;2023-10-08T02:19:59;11.00;66.60
57857;DHT22;43683;48.650;9.290;2023-10-08T02:22:24;10.90;66.80
57857;DHT22;43683;48.650;9.290;2023-10-08T02:24:50;10.90;67.00
57857;DHT22;43683;48.650;9.290;2023-10-08T02:27:16;10.80;67.20
57857;DHT22;43683;48.650;9.290;2023-10-08T02:29:42;10.70;67.40
57857;DHT22;43683;48.650;9.290;2023-10-08T02:32:08;10.70;67.60
57857;DHT22;43683;48.650;9.290;2023-10-08T02:34:33;10.60;67.70
57857;DHT22;43683;48.650;9.290;2023-10-08T02:37:01;10.60;68.00
57857;DHT22;43683;48.650;9.290;2023-10-08T02:39:28;10.50;68.00
57857;DHT22;43683;48.650;9.290;2023-10-08T02:41:55;10.50;67.60
57857;DHT22;43683;48.650;9.290;2023-10-08T02:44:24;10.50;67.80
57857;DHT22;43683;48.650;9.290;2023-10-08T02:46:50;10.40;68.10
57857;DHT22;43683;48.650;9.290;2023-10-08T02:49:18;10.40;68.20
57857;DHT22;43683;48.650;9.290;2023-10-08T02:51:50;10.30;68.30
57857;DHT22;43683;48.650;9.290;2023-10-08T02:54:16;10.30;68.40
57857;DHT22;43683;48.650;9.290;2023-10-08T02:56:48;10.30;68.10
57857;DHT22;43683;48.650;9.290;2023-10-08T02:59:16;10.30;68.20
57857;DHT22;43683;48.650;9.290;2023-10-08T03:01:42;10.20;68.60
57857;DHT22;43683;48.650;9.290;2023-10-08T03:04:10;10.10;69.00
57857;DHT22;43683;48.650;9.290;2023-10-08T03:06:47;10.00;69.30
57857;DHT22;43683;48.650;9.290;2023-10-08T03:09:17;10.00;69.60
57857;DHT22;43683;48.650;9.290;2023-10-08T03:11:47;9.90;69.80
57857;DHT22;43683;48.650;9.290;2023-10-08T03:14:14;9.80;70.10
57857;DHT22;43683;48.650;9.290;2023-10-08T03:16:47;9.80;70.30
57857;DHT22;43683;48.650;9.290;2023-10-08T03:19:13;9.70;70.60
57857;DHT22;43683;48.650;9.290;2023-10-08T03:21:44;9.70;70.80
57857;DHT22;43683;48.650;9.290;2023-10-08T03:24:16;9.60;70.90
57857;DHT22;43683;48.650;9.290;2023-10-08T03:26:56;9.60;71.00
57857;DHT22;43683;48.650;9.290;2023-10-08T03:29:34;9.50;71.20
57857;DHT22;43683;48.650;9.290;2023-10-08T03:32:11;9.60;71.20
57857;DHT22;43683;48.650;9.290;2023-10-08T03:34:49;9.60;71.30
57857;DHT22;43683;48.650;9.290;2023-10-08T03:37:17;9.60;71.60
57857;DHT22;43683;48.650;9.290;2023-10-08T03:39:50;9.50;71.50
57857;DHT22;43683;48.650;9.290;2023-10-08T03:42:47;9.50;71.80
57857;DHT22;43683;48.650;9.290;2023-10-08T03:45:15;9.50;71.80
57857;DHT22;43683;48.650;9.290;2023-10-08T03:47:48;9.50;71.90
57857;DHT22;43683;48.650;9.290;2023-10-08T03:50:28;9.50;72.00
57857;DHT22;43683;48.650;9.290;2023-10-08T03:53:06;9.50;72.10
57857;DHT22;43683;48.650;9.290;2023-10-08T03:55:40;9.50;72.20
57857;DHT22;43683;48.650;9.290;2023-10-08T03:58:09;9.50;72.30
57857;DHT22;43683;48.650;9.290;2023-10-08T04:00:55;9.50;72.40
57857;DHT22;43683;48.650;9.290;2023-10-08T04:03:37;9.50;72.00
57857;DHT22;43683;48.650;9.290;2023-10-08T04:06:26;9.50;72.00
57857;DHT22;43683;48.650;9.290;2023-10-08T04:08:57;9.50;72.00
57857;DHT22;43683;48.650;9.290;2023-10-08T04:11:35;9.50;72.30
57857;DHT22;43683;48.650;9.290;2023-10-08T04:14:04;9.50;72.40
57857;DHT22;43683;48.650;9.290;2023-10-08T04:16:31;9.40;72.80
57857;DHT22;43683;48.650;9.290;2023-10-08T04:18:57;9.40;72.90
57857;DHT22;43683;48.650;9.290;2023-10-08T04:21:28;9.30;73.10
57857;DHT22;43683;48.650;9.290;2023-10-08T04:23:54;9.30;73.50
57857;DHT22;43683;48.650;9.290;2023-10-08T04:26:23;9.20;73.70
57857;DHT22;43683;48.650;9.290;2023-10-08T04:28:51;9.20;73.90
57857;DHT22;43683;48.650;9.290;2023-10-08T04:31:21;9.20;74.20
57857;DHT22;43683;48.650;9.290;2023-10-08T04:33:50;9.20;74.10
57857;DHT22;43683;48.650;9.290;2023-10-08T04:36:17;9.20;74.20
57857;DHT22;43683;48.650;9.290;2023-10-08T04:38:45;9.20;74.10
57857;DHT22;43683;48.650;9.290;2023-10-08T04:41:16;9.20;74.20
57857;DHT22;43683;48.650;9.290;2023-10-08T04:43:45;9.20;74.50
57857;DHT22;43683;48.650;9.290;2023-10-08T04:46:11;9.30;74.30
57857;DHT22;43683;48.650;9.290;2023-10-08T04:48:50;9.40;74.10
57857;DHT22;43683;48.650;9.290;2023-10-08T04:51:16;9.50;73.80
57857;DHT22;43683;48.650;9.290;2023-10-08T04:53:44;9.50;73.70
57857;DHT22;43683;48.650;9.290;2023-10-08T04:56:12;9.60;73.60
57857;DHT22;43683;48.650;9.290;2023-10-08T04:58:45;9.60;73.50
57857;DHT22;43683;48.650;9.290;2023-10-08T05:01:18;9.60;73.50
57857;DHT22;43683;48.650;9.290;2023-10-08T05:03:53;9.70;73.60
57857;DHT22;43683;48.650;9.290;2023-10-08T05:06:30;9.80;73.40
57857;DHT22;43683;48.650;9.290;2023-10-08T05:08:58;9.80;73.30
57857;DHT22;43683;48.650;9.290;2023-10-08T05:11:24;9.90;73.30
57857;DHT22;43683;48.650;9.290;2023-10-08T05:13:50;9.90;73.30
57857;DHT22;43683;48.650;9.290;2023-10-08T05:16:31;9.80;73.50
57857;DHT22;43683;48.650;9.290;2023-10-08T05:19:15;9.80;73.70
57857;DHT22;43683;48.650;9.290;2023-10-08T05:21:59;9.80;73.80
57857;DHT22;43683;48.650;9.290;2023-10-08T05:24:43;9.80;73.80
57857;DHT22;43683;48.650;9.290;2023-10-08T05:27:16;9.70;73.90
57857;DHT22;43683;48.650;9.290;2023-10-08T05:30:04;9.70;74.10
57857;DHT22;43683;48.650;9.290;2023-10-08T05:32:43;9.70;74.10
57857;DHT22;43683;48.650;9.290;2023-10-08T05:35:49;9.70;74.20
57857;DHT22;43683;48.650;9.290;2023-10-08T05:38:17;9.70;74.30
57857;DHT22;43683;48.650;9.290;2023-10-08T05:40:52;9.70;74.30
57857;DHT22;43683;48.650;9.290;2023-10-08T05:46:12;9.60;74.40
57857;DHT22;43683;48.650;9.290;2023-10-08T05:48:48;9.60;74.60
57857;DHT22;43683;48.650;9.290;2023-10-08T05:51:28;9.70;74.50
57857;DHT22;43683;48.650;9.290;2023-10-08T05:54:22;9.70;74.50
57857;DHT22;43683;48.650;9.290;2023-10-08T05:57:08;9.70;74.40
57857;DHT22;43683;48.650;9.290;2023-10-08T06:02:39;9.90;74.40
57857;DHT22;43683;48.650;9.290;2023-10-08T06:05:26;9.90;74.20
57857;DHT22;43683;48.650;9.290;2023-10-08T06:07:58;9.90;74.20
57857;DHT22;43683;48.650;9.290;2023-10-08T06:10:36;10.00;74.40
57857;DHT22;43683;48.650;9.290;2023-10-08T06:13:10;10.00;74.50
57857;DHT22;43683;48.650;9.290;2023-10-08T06:15:48;10.00;74.70
57857;DHT22;43683;48.650;9.290;2023-10-08T06:18:15;10.10;74.90
57857;DHT22;43683;48.650;9.290;2023-10-08T06:20:41;10.10;74.80
57857;DHT22;43683;48.650;9.290;2023-10-08T06:23:14;10.20;74.80
57857;DHT22;43683;48.650;9.290;2023-10-08T06:25:44;10.30;74.60
57857;DHT22;43683;48.650;9.290;2023-10-08T06:28:19;10.40;74.40
57857;DHT22;43683;48.650;9.290;2023-10-08T06:30:50;10.60;74.30
57857;DHT22;43683;48.650;9.290;2023-10-08T06:33:19;10.80;73.90
57857;DHT22;43683;48.650;9.290;2023-10-08T06:35:46;11.00;73.50
57857;DHT22;43683;48.650;9.290;2023-10-08T06:38:31;11.20;73.10
57857;DHT22;43683;48.650;9.290;2023-10-08T06:40:57;11.40;72.80
57857;DHT22;43683;48.650;9.290;2023-10-08T06:43:28;11.60;72.60
57857;DHT22;43683;48.650;9.290;2023-10-08T06:45:54;11.80;72.40
57857;DHT22;43683;48.650;9.290;2023-10-08T06:48:24;11.90;72.20
57857;DHT22;43683;48.650;9.290;2023-10-08T06:50:51;12.10;72.00
57857;DHT22;43683;48.650;9.290;2023-10-08T06:53:22;12.30;71.80
57857;DHT22;43683;48.650;9.290;2023-10-08T06:55:48;12.50;71.50
57857;DHT22;43683;48.650;9.290;2023-10-08T06:58:19;12.70;71.20
57857;DHT22;43683;48.650;9.290;2023-10-08T07:00:45;13.00;71.00
57857;DHT22;43683;48.650;9.290;2023-10-08T07:03:15;13.10;70.90
57857;DHT22;43683;48.650;9.290;2023-10-08T07:05:43;13.20;71.10
57857;DHT22;43683;48.650;9.290;2023-10-08T07:08:11;13.40;71.20
57857;DHT22;43683;48.650;9.290;2023-10-08T07:10:39;13.60;71.10
57857;DHT22;43683;48.650;9.290;2023-10-08T07:13:06;13.80;71.10
57857;DHT22;43683;48.650;9.290;2023-10-08T07:15:33;14.10;71.20
57857;DHT22;43683;48.650;9.290;2023-10-08T07:17:59;14.30;71.80
57857;DHT22;43683;48.650;9.290;2023-10-08T07:20:35;14.60;70.80
57857;DHT22;43683;48.650;9.290;2023-10-08T07:23:05;14.90;70.60
57857;DHT22;43683;48.650;9.290;2023-10-08T07:25:35;15.20;70.20
57857;DHT22;43683;48.650;9.290;2023-10-08T07:28:04;15.60;69.60
57857;DHT22;43683;48.650;9.290;2023-10-08T07:30:35;15.90;69.10
57857;DHT22;43683;48.650;9.290;2023-10-08T07:33:04;16.30;68.80
57857;DHT22;43683;48.650;9.290;2023-10-08T07:35:29;16.80;68.10
57857;DHT22;43683;48.650;9.290;2023-10-08T07:37:55;17.20;67.20
57857;DHT22;43683;48.650;9.290;2023-10-08T07:40:21;17.50;66.00
57857;DHT22;43683;48.650;9.290;2023-10-08T07:42:47;17.70;65.10
57857;DHT22;43683;48.650;9.290;2023-10-08T07:45:17;17.70;64.50
57857;DHT22;43683;48.650;9.290;2023-10-08T07:47:43;17.70;64.20
57857;DHT22;43683;48.650;9.290;2023-10-08T07:50:10;17.70;63.90
57857;DHT22;43683;48.650;9.290;2023-10-08T07:52:38;17.80;63.70
57857;DHT22;43683;48.650;9.290;2023-10-08T07:55:07;17.70;63.40
57857;DHT22;43683;48.650;9.290;2023-10-08T07:57:33;17.80;63.20
57857;DHT22;43683;48.650;9.290;2023-10-08T07:59:58;17.90;63.10
57857;DHT22;43683;48.650;9.290;2023-10-08T08:02:43;17.90;62.90
57857;DHT22;43683;48.650;9.290;2023-10-08T08:05:10;18.00;62.80
57857;DHT22;43683;48.650;9.290;2023-10-08T08:07:35;18.00;62.60
57857;DHT22;43683;48.650;9.290;2023-10-08T08:10:02;18.10;62.30
57857;DHT22;43683;48.650;9.290;2023-10-08T08:12:36;18.30;61.90
57857;DHT22;43683;48.650;9.290;2023-10-08T08:15:03;18.50;61.60
57857;DHT22;43683;48.650;9.290;2023-10-08T08:17:43;18.80;61.00
57857;DHT22;43683;48.650;9.290;2023-10-08T08:20:09;19.00;60.40
57857;DHT22;43683;48.650;9.290;2023-10-08T08:22:44;19.20;59.90
57857;DHT22;43683;48.650;9.290;2023-10-08T08:25:16;19.30;59.50
57857;DHT22;43683;48.650;9.290;2023-10-08T08:27:51;19.40;59.10
57857;DHT22;43683;48.650;9.290;2023-10-08T08:30:18;19.40;59.00
57857;DHT22;43683;48.650;9.290;2023-10-08T08:32:46;19.20;59.30
57857;DHT22;43683;48.650;9.290;2023-10-08T08:35:14;19.00;59.50
57857;DHT22;43683;48.650;9.290;2023-10-08T08:37:45;18.80;59.80
57857;DHT22;43683;48.650;9.290;2023-10-08T08:40:18;18.80;60.30
57857;DHT22;43683;48.650;9.290;2023-10-08T08:42:50;19.40;60.20
57857;DHT22;43683;48.650;9.290;2023-10-08T08:45:22;19.80;59.80
57857;DHT22;43683;48.650;9.290;2023-10-08T08:47:50;20.40;59.50
57857;DHT22;43683;48.650;9.290;2023-10-08T08:50:17;20.90;59.10
57857;DHT22;43683;48.650;9.290;2023-10-08T08:52:43;21.40;58.90
57857;DHT22;43683;48.650;9.290;2023-10-08T08:55:11;21.80;58.40
57857;DHT22;43683;48.650;9.290;2023-10-08T08:57:42;22.20;57.40
57857;DHT22;43683;48.650;9.290;2023-10-08T09:00:11;22.70;56.30
57857;DHT22;43683;48.650;9.290;2023-10-08T09:02:40;23.00;55.80
57857;DHT22;43683;48.650;9.290;2023-10-08T09:05:06;23.30;54.90
57857;DHT22;43683;48.650;9.290;2023-10-08T09:07:56;23.60;54.70
57857;DHT22;43683;48.650;9.290;2023-10-08T09:10:26;24.10;53.40
57857;DHT22;43683;48.650;9.290;2023-10-08T09:12:56;24.60;52.90
57857;DHT22;43683;48.650;9.290;2023-10-08T09:15:25;24.70;52.00
57857;DHT22;43683;48.650;9.290;2023-10-08T09:17:55;24.70;51.90
57857;DHT22;43683;48.650;9.290;2023-10-08T09:20:22;24.70;51.30
57857;DHT22;43683;48.650;9.290;2023-10-08T09:23:10;24.80;51.00
57857;DHT22;43683;48.650;9.290;2023-10-08T09:25:40;25.00;50.30
57857;DHT22;43683;48.650;9.290;2023-10-08T09:28:06;25.00;49.90
57857;DHT22;43683;48.650;9.290;2023-10-08T09:30:36;25.30;50.70
57857;DHT22;43683;48.650;9.290;2023-10-08T09:33:09;25.80;49.60
57857;DHT22;43683;48.650;9.290;2023-10-08T09:35:35;26.30;48.60
57857;DHT22;43683;48.650;9.290;2023-10-08T09:38:06;26.80;47.20
57857;DHT22;43683;48.650;9.290;2023-10-08T09:40:39;27.10;45.90
57857;DHT22;43683;48.650;9.290;2023-10-08T09:43:11;27.60;45.20
57857;DHT22;43683;48.650;9.290;2023-10-08T09:45:38;28.00;44.30
57857;DHT22;43683;48.650;9.290;2023-10-08T09:48:10;28.40;43.50
57857;DHT22;43683;48.650;9.290;2023-10-08T09:50:40;28.70;42.40
57857;DHT22;43683;48.650;9.290;2023-10-08T09:53:13;28.60;41.70
57857;DHT22;43683;48.650;9.290;2023-10-08T09:56:12;28.10;41.20
57857;DHT22;43683;48.650;9.290;2023-10-08T09:58:39;27.30;41.70
57857;DHT22;43683;48.650;9.290;2023-10-08T10:01:06;26.90;42.00
57857;DHT22;43683;48.650;9.290;2023-10-08T10:03:32;26.50;42.00
57857;DHT22;43683;48.650;9.290;2023-10-08T10:06:01;26.20;42.30
57857;DHT22;43683;48.650;9.290;2023-10-08T10:08:27;26.00;42.00
57857;DHT22;43683;48.650;9.290;2023-10-08T10:10:59;25.80;42.10
57857;DHT22;43683;48.650;9.290;2023-10-08T10:13:28;25.80;42.20
57857;DHT22;43683;48.650;9.290;2023-10-08T10:15:54;25.70;42.00
57857;DHT22;43683;48.650;9.290;2023-10-08T10:20:53;25.50;42.20
57857;DHT22;43683;48.650;9.290;2023-10-08T10:23:46;25.40;42.30
57857;DHT22;43683;48.650;9.290;2023-10-08T10:26:34;25.40;42.40
57857;DHT22;43683;48.650;9.290;2023-10-08T10:31:43;25.40;42.10
57857;DHT22;43683;48.650;9.290;2023-10-08T10:34:18;25.50;41.90
57857;DHT22;43683;48.650;9.290;2023-10-08T10:36:46;25.70;41.70
57857;DHT22;43683;48.650;9.290;2023-10-08T10:39:16;25.80;42.20
57857;DHT22;43683;48.650;9.290;2023-10-08T10:41:46;25.80;41.20
57857;DHT22;43683;48.650;9.290;2023-10-08T10:44:15;25.70;40.80
57857;DHT22;43683;48.650;9.290;2023-10-08T10:46:45;25.60;40.90
57857;DHT22;43683;48.650;9.290;2023-10-08T10:49:32;25.40;41.00
57857;DHT22;43683;48.650;9.290;2023-10-08T10:52:02;25.30;41.20
57857;DHT22;43683;48.650;9.290;2023-10-08T10:54:30;25.10;41.10
57857;DHT22;43683;48.650;9.290;2023-10-08T10:57:01;25.00;41.50
57857;DHT22;43683;48.650;9.290;2023-10-08T10:59:31;24.90;41.50
57857;DHT22;43683;48.650;9.290;2023-10-08T11:02:06;24.80;41.40
57857;DHT22;43683;48.650;9.290;2023-10-08T11:04:47;24.80;41.70
57857;DHT22;43683;48.650;9.290;2023-10-08T11:07:18;24.70;41.80
57857;DHT22;43683;48.650;9.290;2023-10-08T11:09:46;24.60;41.90
57857;DHT22;43683;48.650;9.290;2023-10-08T11:12:14;24.70;42.00
57857;DHT22;43683;48.650;9.290;2023-10-08T11:14:46;24.70;41.80
57857;DHT22;43683;48.650;9.290;2023-10-08T11:17:16;24.70;41.90
57857;DHT22;43683;48.650;9.290;2023-10-08T11:19:43;24.70;41.80
57857;DHT22;43683;48.650;9.290;2023-10-08T11:22:12;24.70;41.80
57857;DHT22;43683;48.650;9.290;2023-10-08T11:24:42;24.80;41.70
57857;DHT22;43683;48.650;9.290;2023-10-08T11:27:10;24.80;41.70
57857;DHT22;43683;48.650;9.290;2023-10-08T11:29:49;24.80;41.90
57857;DHT22;43683;48.650;9.290;2023-10-08T11:32:26;24.60;42.10
57857;DHT22;43683;48.650;9.290;2023-10-08T11:34:56;24.40;42.40
57857;DHT22;43683;48.650;9.290;2023-10-08T11:37:28;24.30;42.60
57857;DHT22;43683;48.650;9.290;2023-10-08T11:39:54;24.10;43.00
57857;DHT22;43683;48.650;9.290;2023-10-08T11:42:24;24.00;43.40
57857;DHT22;43683;48.650;9.290;2023-10-08T11:45:02;24.00;43.30
57857;DHT22;43683;48.650;9.290;2023-10-08T11:47:55;24.00;43.70
57857;DHT22;43683;48.650;9.290;2023-10-08T11:50:27;24.00;43.80
57857;DHT22;43683;48.650;9.290;2023-10-08T11:53:00;24.10;43.40
57857;DHT22;43683;48.650;9.290;2023-10-08T11:55:34;24.00;43.50
57857;DHT22;43683;48.650;9.290;2023-10-08T11:58:01;24.00;43.40
57857;DHT22;43683;48.650;9.290;2023-10-08T12:00:36;24.00;43.70
57857;DHT22;43683;48.650;9.290;2023-10-08T12:03:03;24.10;43.80
57857;DHT22;43683;48.650;9.290;2023-10-08T12:05:30;24.30;43.80
57857;DHT22;43683;48.650;9.290;2023-10-08T12:07:57;24.40;43.70
57857;DHT22;43683;48.650;9.290;2023-10-08T12:10:23;24.50;43.50
57857;DHT22;43683;48.650;9.290;2023-10-08T12:12:53;24.70;43.20
57857;DHT22;43683;48.650;9.290;2023-10-08T12:15:22;24.80;43.00
57857;DHT22;43683;48.650;9.290;2023-10-08T12:17:52;24.80;42.60
57857;DHT22;43683;48.650;9.290;2023-10-08T12:20:39;25.00;42.30
57857;DHT22;43683;48.650;9.290;2023-10-08T12:23:10;25.20;42.50
57857;DHT22;43683;48.650;9.290;2023-10-08T12:25:48;25.30;42.50
57857;DHT22;43683;48.650;9.290;2023-10-08T12:28:17;25.20;42.40
57857;DHT22;43683;48.650;9.290;2023-10-08T12:30:44;25.20;42.50
57857;DHT22;43683;48.650;9.290;2023-10-08T12:33:10;25.20;42.60
57857;DHT22;43683;48.650;9.290;2023-10-08T12:35:39;25.20;42.70
57857;DHT22;43683;48.650;9.290;2023-10-08T12:38:05;25.30;43.20
57857;DHT22;43683;48.650;9.290;2023-10-08T12:40:31;25.20;43.50
57857;DHT22;43683;48.650;9.290;2023-10-08T12:43:15;25.10;43.70
57857;DHT22;43683;48.650;9.290;2023-10-08T12:45:48;25.00;44.00
57857;DHT22;43683;48.650;9.290;2023-10-08T12:48:26;24.90;44.10
57857;DHT22;43683;48.650;9.290;2023-10-08T12:50:55;24.80;43.80
57857;DHT22;43683;48.650;9.290;2023-10-08T12:53:25;24.80;43.90
57857;DHT22;43683;48.650;9.290;2023-10-08T12:56:06;24.90;43.60
57857;DHT22;43683;48.650;9.290;2023-10-08T12:58:36;25.40;43.20
57857;DHT22;43683;48.650;9.290;2023-10-08T13:01:10;26.00;42.50
57857;DHT22;43683;48.650;9.290;2023-10-08T13:03:36;26.50;42.10
57857;DHT22;43683;48.650;9.290;2023-10-08T13:06:07;26.60;41.90
57857;DHT22;43683;48.650;9.290;2023-10-08T13:08:36;26.50;41.90
57857;DHT22;43683;48.650;9.290;2023-10-08T13:11:03;26.30;42.10
57857;DHT22;43683;48.650;9.290;2023-10-08T13:13:30;26.00;42.30
57857;DHT22;43683;48.650;9.290;2023-10-08T13:15:56;26.00;42.20
57857;DHT22;43683;48.650;9.290;2023-10-08T13:18:23;26.30;42.00
57857;DHT22;43683;48.650;9.290;2023-10-08T13:20:52;26.50;41.50
57857;DHT22;43683;48.650;9.290;2023-10-08T13:23:18;26.80;41.40
57857;DHT22;43683;48.650;9.290;2023-10-08T13:25:52;27.00;41.00
57857;DHT22;43683;48.650;9.290;2023-10-08T13:28:22;27.30;40.90
57857;DHT22;43683;48.650;9.290;2023-10-08T13:30:52;27.50;40.40
57857;DHT22;43683;48.650;9.290;2023-10-08T13:33:21;27.80;40.00
57857;DHT22;43683;48.650;9.290;2023-10-08T13:35:50;27.90;39.80
57857;DHT22;43683;48.650;9.290;2023-10-08T13:38:19;28.00;39.70
57857;DHT22;43683;48.650;9.290;2023-10-08T13:40:51;28.10;39.50
57857;DHT22;43683;48.650;9.290;2023-10-08T13:43:32;28.30;39.10
57857;DHT22;43683;48.650;9.290;2023-10-08T13:46:06;28.40;39.10
57857;DHT22;43683;48.650;9.290;2023-10-08T13:48:34;28.50;38.60
57857;DHT22;43683;48.650;9.290;2023-10-08T13:51:04;28.50;38.60
57857;DHT22;43683;48.650;9.290;2023-10-08T13:53:31;28.60;38.50
57857;DHT22;43683;48.650;9.290;2023-10-08T13:56:01;28.50;38.30
57857;DHT22;43683;48.650;9.290;2023-10-08T13:58:28;28.70;38.10
57857;DHT22;43683;48.650;9.290;2023-10-08T14:00:59;28.60;38.00
57857;DHT22;43683;48.650;9.290;2023-10-08T14:03:27;28.60;37.70
57857;DHT22;43683;48.650;9.290;2023-10-08T14:05:59;28.60;37.70
57857;DHT22;43683;48.650;9.290;2023-10-08T14:08:30;28.50;38.00
57857;DHT22;43683;48.650;9.290;2023-10-08T14:10:59;28.50;38.20
57857;DHT22;43683;48.650;9.290;2023-10-08T14:13:31;28.60;38.20
57857;DHT22;43683;48.650;9.290;2023-10-08T14:16:04;28.60;38.20
57857;DHT22;43683;48.650;9.290;2023-10-08T14:18:34;28.70;37.90
57857;DHT22;43683;48.650;9.290;2023-10-08T14:21:15;28.60;38.00
57857;DHT22;43683;48.650;9.290;2023-10-08T14:23:43;28.60;38.00
57857;DHT22;43683;48.650;9.290;2023-10-08T14:26:09;28.50;38.10
57857;DHT22;43683;48.650;9.290;2023-10-08T14:28:36;28.40;37.80
57857;DHT22;43683;48.650;9.290;2023-10-08T14:31:16;28.30;37.80
57857;DHT22;43683;48.650;9.290;2023-10-08T14:33:43;27.90;37.90
57857;DHT22;43683;48.650;9.290;2023-10-08T14:36:22;27.70;37.80
57857;DHT22;43683;48.650;9.290;2023-10-08T14:39:07;27.50;37.70
57857;DHT22;43683;48.650;9.290;2023-10-08T14:41:51;27.30;37.50
57857;DHT22;43683;48.650;9.290;2023-10-08T14:44:35;27.10;37.80
57857;DHT22;43683;48.650;9.290;2023-10-08T14:47:00;27.00;38.00
57857;DHT22;43683;48.650;9.290;2023-10-08T14:49:26;26.90;38.10
57857;DHT22;43683;48.650;9.290;2023-10-08T14:51:52;26.80;38.10
57857;DHT22;43683;48.650;9.290;2023-10-08T14:54:20;26.80;38.10
57857;DHT22;43683;48.650;9.290;2023-10-08T14:56:46;26.70;38.00
57857;DHT22;43683;48.650;9.290;2023-10-08T14:59:12;26.60;37.90
57857;DHT22;43683;48.650;9.290;2023-10-08T15:01:38;26.40;37.80
57857;DHT22;43683;48.650;9.290;2023-10-08T15:04:04;26.30;37.90
57857;DHT22;43683;48.650;9.290;2023-10-08T15:06:31;26.20;38.00
57857;DHT22;43683;48.650;9.290;2023-10-08T15:08:58;26.10;38.00
57857;DHT22;43683;48.650;9.290;2023-10-08T15:11:23;26.00;38.30
57857;DHT22;43683;48.650;9.290;2023-10-08T15:13:50;25.90;38.50
57857;DHT22;43683;48.650;9.290;2023-10-08T15:16:19;25.80;38.50
57857;DHT22;43683;48.650;9.290;2023-10-08T15:18:51;25.70;38.70
57857;DHT22;43683;48.650;9.290;2023-10-08T15:21:17;25.60;38.90
57857;DHT22;43683;48.650;9.290;2023-10-08T15:23:44;25.40;38.90
57857;DHT22;43683;48.650;9.290;2023-10-08T15:26:10;25.10;39.20
57857;DHT22;43683;48.650;9.290;2023-10-08T15:28:37;24.80;39.70
57857;DHT22;43683;48.650;9.290;2023-10-08T15:31:06;24.60;40.00
57857;DHT22;43683;48.650;9.290;2023-10-08T15:33:32;24.50;40.30
57857;DHT22;43683;48.650;9.290;2023-10-08T15:35:58;24.30;40.40
57857;DHT22;43683;48.650;9.290;2023-10-08T15:38:24;24.30;40.50
57857;DHT22;43683;48.650;9.290;2023-10-08T15:40:51;24.10;40.70
57857;DHT22;43683;48.650;9.290;2023-10-08T15:43:17;24.10;40.80
57857;DHT22;43683;48.650;9.290;2023-10-08T15:45:43;23.90;41.00
57857;DHT22;43683;48.650;9.290;2023-10-08T15:48:10;23.80;41.30
57857;DHT22;43683;48.650;9.290;2023-10-08T15:50:36;23.70;41.50
57857;DHT22;43683;48.650;9.290;2023-10-08T15:53:01;23.60;41.70
57857;DHT22;43683;48.650;9.290;2023-10-08T15:55:27;23.40;41.90
57857;DHT22;43683;48.650;9.290;2023-10-08T15:57:52;23.40;42.20
57857;DHT22;43683;48.650;9.290;2023-10-08T16:00:18;23.30;42.30
57857;DHT22;43683;48.650;9.290;2023-10-08T16:02:44;23.20;42.40
57857;DHT22;43683;48.650;9.290;2023-10-08T16:05:11;23.20;42.60